sensor_id;sensor_type;location;lat;lon;timestamp;pressure;altitude;pressure_sealevel;temperature;humidity
50310;BME280;36207;51.850;21.698;2023-04-27T00:00:26;99891.35;;;3.56;61.54
50310;BME280;36207;51.850;21.698;2023-04-27T00:03:12;99893.04;;;3.51;61.79
50310;BME280;36207;51.850;21.698;2023-04-27T00:05:38;99897.63;;;3.47;61.66
50310;BME280;36207;51.850;21.698;2023-04-27T00:08:05;99896.81;;;3.43;61.75
50310;BME280;36207;51.850;21.698;2023-04-27T00:10:32;99899.40;;;3.37;61.80
50310;BME280;36207;51.850;21.698;2023-04-27T00:12:58;99895.06;;;3.32;62.11
50310;BME280;36207;51.850;21.698;2023-04-27T00:15:24;99894.59;;;3.30;62.06
50310;BME280;36207;51.850;21.698;2023-04-27T00:17:51;99895.99;;;3.28;62.17
50310;BME280;36207;51.850;21.698;2023-04-27T00:20:17;99899.23;;;3.27;62.22
50310;BME280;36207;51.850;21.698;2023-04-27T00:22:43;99901.30;;;3.30;62.40
50310;BME280;36207;51.850;21.698;2023-04-27T00:25:10;99901.98;;;3.32;62.45
50310;BME280;36207;51.850;21.698;2023-04-27T00:27:36;99901.14;;;3.33;62.68
50310;BME280;36207;51.850;21.698;2023-04-27T00:30:03;99901.34;;;3.33;62.51
50310;BME280;36207;51.850;21.698;2023-04-27T00:32:30;99904.51;;;3.31;62.40
50310;BME280;36207;51.850;21.698;2023-04-27T00:34:56;99899.84;;;3.30;62.37
50310;BME280;36207;51.850;21.698;2023-04-27T00:37:23;99903.11;;;3.29;62.60
50310;BME280;36207;51.850;21.698;2023-04-27T00:39:49;99905.91;;;3.27;62.73
50310;BME280;36207;51.850;21.698;2023-04-27T00:42:16;99902.08;;;3.25;62.44
50310;BME280;36207;51.850;21.698;2023-04-27T00:44:45;99907.12;;;3.22;62.79
50310;BME280;36207;51.850;21.698;2023-04-27T00:47:12;99913.23;;;3.18;62.89
50310;BME280;36207;51.850;21.698;2023-04-27T00:49:38;99913.81;;;3.15;63.12
50310;BME280;36207;51.850;21.698;2023-04-27T00:52:06;99912.60;;;3.11;63.04
50310;BME280;36207;51.850;21.698;2023-04-27T00:54:32;99915.23;;;3.07;62.99
50310;BME280;36207;51.850;21.698;2023-04-27T00:56:58;99919.50;;;3.03;63.03
50310;BME280;36207;51.850;21.698;2023-04-27T00:59:25;99919.33;;;2.98;62.97
50310;BME280;36207;51.850;21.698;2023-04-27T01:01:52;99920.69;;;2.95;63.08
50310;BME280;36207;51.850;21.698;2023-04-27T01:04:20;99925.03;;;2.91;63.33
50310;BME280;36207;51.850;21.698;2023-04-27T01:06:46;99926.98;;;2.87;63.41
50310;BME280;36207;51.850;21.698;2023-04-27T01:09:13;99925.91;;;2.83;63.24
50310;BME280;36207;51.850;21.698;2023-04-27T01:11:39;99925.80;;;2.80;63.46
50310;BME280;36207;51.850;21.698;2023-04-27T01:14:06;99930.63;;;2.78;63.39
50310;BME280;36207;51.850;21.698;2023-04-27T01:16:33;99928.46;;;2.74;63.62
50310;BME280;36207;51.850;21.698;2023-04-27T01:19:00;99927.12;;;2.69;63.47
50310;BME280;36207;51.850;21.698;2023-04-27T01:21:27;99930.25;;;2.63;63.35
50310;BME280;36207;51.850;21.698;2023-04-27T01:23:53;99933.67;;;2.58;63.57
50310;BME280;36207;51.850;21.698;2023-04-27T01:26:20;99936.91;;;2.55;63.56
50310;BME280;36207;51.850;21.698;2023-04-27T01:28:48;99936.09;;;2.53;63.74
50310;BME280;36207;51.850;21.698;2023-04-27T01:31:14;99935.66;;;2.49;63.68
50310;BME280;36207;51.850;21.698;2023-04-27T01:33:41;99938.50;;;2.47;63.59
50310;BME280;36207;51.850;21.698;2023-04-27T01:36:08;99938.98;;;2.45;63.50
50310;BME280;36207;51.850;21.698;2023-04-27T01:38:35;99942.90;;;2.44;63.58
50310;BME280;36207;51.850;21.698;2023-04-27T01:41:05;99942.70;;;2.43;63.74
50310;BME280;36207;51.850;21.698;2023-04-27T01:43:35;99943.38;;;2.41;63.84
50310;BME280;36207;51.850;21.698;2023-04-27T01:46:05;99943.71;;;2.39;63.92
50310;BME280;36207;51.850;21.698;2023-04-27T01:48:33;99946.88;;;2.37;63.93
50310;BME280;36207;51.850;21.698;2023-04-27T01:50:59;99945.98;;;2.33;63.96
50310;BME280;36207;51.850;21.698;2023-04-27T01:53:26;99942.82;;;2.29;63.99
50310;BME280;36207;51.850;21.698;2023-04-27T01:55:52;99944.42;;;2.27;64.03
50310;BME280;36207;51.850;21.698;2023-04-27T01:58:19;99948.08;;;2.27;63.98
50310;BME280;36207;51.850;21.698;2023-04-27T02:00:45;99946.90;;;2.26;64.18
50310;BME280;36207;51.850;21.698;2023-04-27T02:03:12;99945.86;;;2.23;64.52
50310;BME280;36207;51.850;21.698;2023-04-27T02:05:38;99948.29;;;2.22;64.93
50310;BME280;36207;51.850;21.698;2023-04-27T02:08:04;99948.71;;;2.19;65.14
50310;BME280;36207;51.850;21.698;2023-04-27T02:10:31;99949.24;;;2.19;64.63
50310;BME280;36207;51.850;21.698;2023-04-27T02:12:57;99951.08;;;2.20;64.75
50310;BME280;36207;51.850;21.698;2023-04-27T02:15:23;99951.47;;;2.20;64.67
50310;BME280;36207;51.850;21.698;2023-04-27T02:17:50;99949.85;;;2.18;64.62
50310;BME280;36207;51.850;21.698;2023-04-27T02:20:16;99951.23;;;2.16;64.60
50310;BME280;36207;51.850;21.698;2023-04-27T02:22:43;99951.09;;;2.14;64.86
50310;BME280;36207;51.850;21.698;2023-04-27T02:25:11;99953.47;;;2.10;64.53
50310;BME280;36207;51.850;21.698;2023-04-27T02:27:38;99952.21;;;2.07;64.52
50310;BME280;36207;51.850;21.698;2023-04-27T02:30:08;99952.55;;;2.05;64.57
50310;BME280;36207;51.850;21.698;2023-04-27T02:32:36;99952.85;;;2.03;64.86
50310;BME280;36207;51.850;21.698;2023-04-27T02:35:03;99949.77;;;2.02;64.60
50310;BME280;36207;51.850;21.698;2023-04-27T02:37:29;99947.04;;;2.01;64.89
50310;BME280;36207;51.850;21.698;2023-04-27T02:39:56;99949.44;;;2.00;64.79
50310;BME280;36207;51.850;21.698;2023-04-27T02:42:22;99949.92;;;2.00;64.81
50310;BME280;36207;51.850;21.698;2023-04-27T02:44:48;99953.17;;;1.99;64.90
50310;BME280;36207;51.850;21.698;2023-04-27T02:47:15;99957.45;;;1.96;65.38
50310;BME280;36207;51.850;21.698;2023-04-27T02:49:42;99959.42;;;1.93;65.21
50310;BME280;36207;51.850;21.698;2023-04-27T02:52:08;99962.83;;;1.90;64.86
50310;BME280;36207;51.850;21.698;2023-04-27T02:54:35;99961.76;;;1.87;64.97
50310;BME280;36207;51.850;21.698;2023-04-27T02:57:01;99959.70;;;1.82;65.24
50310;BME280;36207;51.850;21.698;2023-04-27T02:59:28;99958.61;;;1.77;65.07
50310;BME280;36207;51.850;21.698;2023-04-27T03:01:54;99964.17;;;1.76;64.99
50310;BME280;36207;51.850;21.698;2023-04-27T03:04:20;99962.78;;;1.76;65.33
50310;BME280;36207;51.850;21.698;2023-04-27T03:06:47;99961.94;;;1.73;65.47
50310;BME280;36207;51.850;21.698;2023-04-27T03:09:13;99965.10;;;1.71;65.30
50310;BME280;36207;51.850;21.698;2023-04-27T03:11:39;99968.29;;;1.69;65.38
50310;BME280;36207;51.850;21.698;2023-04-27T03:14:06;99965.80;;;1.64;65.49
50310;BME280;36207;51.850;21.698;2023-04-27T03:16:33;99967.90;;;1.60;65.43
50310;BME280;36207;51.850;21.698;2023-04-27T03:19:00;99971.80;;;1.57;65.44
50310;BME280;36207;51.850;21.698;2023-04-27T03:21:27;99969.63;;;1.54;65.34
50310;BME280;36207;51.850;21.698;2023-04-27T03:23:53;99973.15;;;1.52;65.10
50310;BME280;36207;51.850;21.698;2023-04-27T03:26:20;99976.00;;;1.49;65.45
50310;BME280;36207;51.850;21.698;2023-04-27T03:28:46;99982.38;;;1.46;65.30
50310;BME280;36207;51.850;21.698;2023-04-27T03:31:13;99985.98;;;1.43;65.49
50310;BME280;36207;51.850;21.698;2023-04-27T03:33:40;99990.06;;;1.38;65.38
50310;BME280;36207;51.850;21.698;2023-04-27T03:36:07;99995.31;;;1.35;65.55
50310;BME280;36207;51.850;21.698;2023-04-27T03:38:35;99993.52;;;1.36;65.80
50310;BME280;36207;51.850;21.698;2023-04-27T03:41:02;99996.94;;;1.39;65.74
50310;BME280;36207;51.850;21.698;2023-04-27T03:43:28;100000.14;;;1.45;66.12
50310;BME280;36207;51.850;21.698;2023-04-27T03:45:55;99999.64;;;1.50;66.08
50310;BME280;36207;51.850;21.698;2023-04-27T03:48:21;100004.58;;;1.51;66.72
50310;BME280;36207;51.850;21.698;2023-04-27T03:50:48;100006.45;;;1.52;67.23
50310;BME280;36207;51.850;21.698;2023-04-27T03:53:15;100011.69;;;1.52;67.15
50310;BME280;36207;51.850;21.698;2023-04-27T03:55:42;100012.67;;;1.53;66.60
50310;BME280;36207;51.850;21.698;2023-04-27T03:58:09;100014.84;;;1.54;66.54
50310;BME280;36207;51.850;21.698;2023-04-27T04:00:37;100014.39;;;1.53;66.70
50310;BME280;36207;51.850;21.698;2023-04-27T04:03:04;100015.77;;;1.54;66.65
50310;BME280;36207;51.850;21.698;2023-04-27T04:05:31;100017.43;;;1.57;66.29
50310;BME280;36207;51.850;21.698;2023-04-27T04:07:58;100021.52;;;1.64;66.67
50310;BME280;36207;51.850;21.698;2023-04-27T04:10:24;100018.96;;;1.69;66.60
50310;BME280;36207;51.850;21.698;2023-04-27T04:12:51;100020.18;;;1.73;66.75
50310;BME280;36207;51.850;21.698;2023-04-27T04:15:18;100020.02;;;1.76;66.83
50310;BME280;36207;51.850;21.698;2023-04-27T04:17:45;100018.20;;;1.81;67.00
50310;BME280;36207;51.850;21.698;2023-04-27T04:20:12;100014.89;;;1.85;66.91
50310;BME280;36207;51.850;21.698;2023-04-27T04:22:39;100020.75;;;1.88;66.96
50310;BME280;36207;51.850;21.698;2023-04-27T04:25:06;100020.35;;;1.93;66.85
50310;BME280;36207;51.850;21.698;2023-04-27T04:27:32;100022.78;;;2.00;67.01
50310;BME280;36207;51.850;21.698;2023-04-27T04:29:59;100028.77;;;2.09;67.03
50310;BME280;36207;51.850;21.698;2023-04-27T04:32:26;100029.61;;;2.16;67.17
50310;BME280;36207;51.850;21.698;2023-04-27T04:34:57;100031.40;;;2.24;67.21
50310;BME280;36207;51.850;21.698;2023-04-27T04:37:24;100034.13;;;2.34;67.37
50310;BME280;36207;51.850;21.698;2023-04-27T04:39:50;100038.80;;;2.43;67.17
50310;BME280;36207;51.850;21.698;2023-04-27T04:42:17;100039.65;;;2.52;67.36
50310;BME280;36207;51.850;21.698;2023-04-27T04:44:43;100039.00;;;2.62;67.36
50310;BME280;36207;51.850;21.698;2023-04-27T04:47:10;100040.85;;;2.73;67.24
50310;BME280;36207;51.850;21.698;2023-04-27T04:49:37;100045.45;;;2.88;67.38
50310;BME280;36207;51.850;21.698;2023-04-27T04:52:03;100043.96;;;3.01;67.24
50310;BME280;36207;51.850;21.698;2023-04-27T04:54:30;100051.17;;;3.14;67.45
50310;BME280;36207;51.850;21.698;2023-04-27T04:56:56;100055.87;;;3.27;67.50
50310;BME280;36207;51.850;21.698;2023-04-27T04:59:27;100054.37;;;3.38;67.26
50310;BME280;36207;51.850;21.698;2023-04-27T05:01:53;100052.51;;;3.49;67.46
50310;BME280;36207;51.850;21.698;2023-04-27T05:04:21;100050.70;;;3.60;67.34
50310;BME280;36207;51.850;21.698;2023-04-27T05:06:48;100052.72;;;3.69;67.19
50310;BME280;36207;51.850;21.698;2023-04-27T05:09:14;100049.64;;;3.80;67.25
50310;BME280;36207;51.850;21.698;2023-04-27T05:11:41;100054.55;;;3.92;67.33
50310;BME280;36207;51.850;21.698;2023-04-27T05:14:07;100053.39;;;4.04;67.42
50310;BME280;36207;51.850;21.698;2023-04-27T05:16:33;100050.55;;;4.16;67.35
50310;BME280;36207;51.850;21.698;2023-04-27T05:19:00;100048.70;;;4.27;67.28
50310;BME280;36207;51.850;21.698;2023-04-27T05:21:26;100046.16;;;4.35;67.10
50310;BME280;36207;51.850;21.698;2023-04-27T05:23:52;100046.95;;;4.46;67.19
50310;BME280;36207;51.850;21.698;2023-04-27T05:26:18;100046.11;;;4.55;67.21
50310;BME280;36207;51.850;21.698;2023-04-27T05:28:46;100045.56;;;4.63;67.18
50310;BME280;36207;51.850;21.698;2023-04-27T05:31:14;100047.36;;;4.71;67.15
50310;BME280;36207;51.850;21.698;2023-04-27T05:33:40;100052.56;;;4.79;67.16
50310;BME280;36207;51.850;21.698;2023-04-27T05:36:07;100056.80;;;4.86;67.14
50310;BME280;36207;51.850;21.698;2023-04-27T05:38:34;100059.25;;;4.99;67.04
50310;BME280;36207;51.850;21.698;2023-04-27T05:41:04;100056.19;;;5.09;67.07
50310;BME280;36207;51.850;21.698;2023-04-27T05:43:31;100058.00;;;5.22;67.00
50310;BME280;36207;51.850;21.698;2023-04-27T05:45:59;100057.71;;;5.36;66.98
50310;BME280;36207;51.850;21.698;2023-04-27T05:48:26;100061.63;;;5.52;67.00
50310;BME280;36207;51.850;21.698;2023-04-27T05:51:02;100060.17;;;5.68;66.84
50310;BME280;36207;51.850;21.698;2023-04-27T05:53:29;100059.52;;;5.82;66.99
50310;BME280;36207;51.850;21.698;2023-04-27T05:55:56;100062.48;;;5.97;67.07
50310;BME280;36207;51.850;21.698;2023-04-27T05:58:24;100062.23;;;6.11;66.97
50310;BME280;36207;51.850;21.698;2023-04-27T06:00:50;100065.51;;;6.22;67.07
50310;BME280;36207;51.850;21.698;2023-04-27T06:03:17;100066.85;;;6.34;66.78
50310;BME280;36207;51.850;21.698;2023-04-27T06:05:43;100072.96;;;6.42;66.83
50310;BME280;36207;51.850;21.698;2023-04-27T06:08:10;100072.11;;;6.49;66.70
50310;BME280;36207;51.850;21.698;2023-04-27T06:10:38;100076.77;;;6.59;66.84
50310;BME280;36207;51.850;21.698;2023-04-27T06:13:05;100078.98;;;6.65;66.63
50310;BME280;36207;51.850;21.698;2023-04-27T06:15:31;100076.86;;;6.72;66.48
50310;BME280;36207;51.850;21.698;2023-04-27T06:17:57;100078.16;;;6.81;66.24
50310;BME280;36207;51.850;21.698;2023-04-27T06:20:24;100080.23;;;6.88;66.03
50310;BME280;36207;51.850;21.698;2023-04-27T06:22:50;100080.75;;;6.97;66.41
50310;BME280;36207;51.850;21.698;2023-04-27T06:25:17;100081.59;;;7.08;66.48
50310;BME280;36207;51.850;21.698;2023-04-27T06:27:43;100084.11;;;7.18;66.42
50310;BME280;36207;51.850;21.698;2023-04-27T06:30:11;100085.48;;;7.27;66.15
50310;BME280;36207;51.850;21.698;2023-04-27T06:32:38;100082.98;;;7.40;66.22
50310;BME280;36207;51.850;21.698;2023-04-27T06:35:04;100085.77;;;7.56;66.02
50310;BME280;36207;51.850;21.698;2023-04-27T06:37:31;100088.64;;;7.73;65.91
50310;BME280;36207;51.850;21.698;2023-04-27T06:39:57;100087.32;;;7.87;65.80
50310;BME280;36207;51.850;21.698;2023-04-27T06:42:24;100085.67;;;7.98;65.52
50310;BME280;36207;51.850;21.698;2023-04-27T06:44:53;100085.67;;;8.10;65.44
50310;BME280;36207;51.850;21.698;2023-04-27T06:47:21;100085.21;;;8.21;65.38
50310;BME280;36207;51.850;21.698;2023-04-27T06:49:47;100087.77;;;8.32;65.23
50310;BME280;36207;51.850;21.698;2023-04-27T06:52:14;100088.88;;;8.43;65.53
50310;BME280;36207;51.850;21.698;2023-04-27T06:54:40;100086.75;;;8.57;65.28
50310;BME280;36207;51.850;21.698;2023-04-27T06:57:06;100087.75;;;8.65;64.87
50310;BME280;36207;51.850;21.698;2023-04-27T06:59:33;100089.73;;;8.73;64.75
50310;BME280;36207;51.850;21.698;2023-04-27T07:01:59;100088.66;;;8.82;64.84
50310;BME280;36207;51.850;21.698;2023-04-27T07:04:26;100091.44;;;8.94;65.18
50310;BME280;36207;51.850;21.698;2023-04-27T07:06:52;100090.13;;;9.09;65.30
50310;BME280;36207;51.850;21.698;2023-04-27T07:09:18;100088.27;;;9.21;64.62
50310;BME280;36207;51.850;21.698;2023-04-27T07:11:45;100091.02;;;9.29;64.16
50310;BME280;36207;51.850;21.698;2023-04-27T07:14:11;100090.30;;;9.35;64.00
50310;BME280;36207;51.850;21.698;2023-04-27T07:16:38;100090.09;;;9.40;63.95
50310;BME280;36207;51.850;21.698;2023-04-27T07:19:04;100090.48;;;9.48;63.92
50310;BME280;36207;51.850;21.698;2023-04-27T07:21:31;100089.45;;;9.55;63.48
50310;BME280;36207;51.850;21.698;2023-04-27T07:23:58;100092.14;;;9.62;62.80
50310;BME280;36207;51.850;21.698;2023-04-27T07:26:24;100093.39;;;9.68;62.91
50310;BME280;36207;51.850;21.698;2023-04-27T07:28:52;100093.85;;;9.75;63.05
50310;BME280;36207;51.850;21.698;2023-04-27T07:31:18;100091.61;;;9.82;62.75
50310;BME280;36207;51.850;21.698;2023-04-27T07:33:45;100092.11;;;9.91;62.88
50310;BME280;36207;51.850;21.698;2023-04-27T07:36:11;100090.02;;;10.00;63.12
50310;BME280;36207;51.850;21.698;2023-04-27T07:38:38;100092.33;;;10.09;61.73
50310;BME280;36207;51.850;21.698;2023-04-27T07:41:04;100091.83;;;10.17;61.67
50310;BME280;36207;51.850;21.698;2023-04-27T07:43:31;100093.52;;;10.27;62.41
50310;BME280;36207;51.850;21.698;2023-04-27T07:45:57;100095.73;;;10.37;61.87
50310;BME280;36207;51.850;21.698;2023-04-27T07:48:24;100093.71;;;10.44;61.41
50310;BME280;36207;51.850;21.698;2023-04-27T07:50:50;100090.24;;;10.52;61.53
50310;BME280;36207;51.850;21.698;2023-04-27T07:53:16;100089.33;;;10.63;61.71
50310;BME280;36207;51.850;21.698;2023-04-27T07:55:43;100086.63;;;10.73;61.04
50310;BME280;36207;51.850;21.698;2023-04-27T07:58:09;100083.38;;;10.80;61.34
50310;BME280;36207;51.850;21.698;2023-04-27T08:00:36;100085.61;;;10.92;61.77
50310;BME280;36207;51.850;21.698;2023-04-27T08:03:02;100083.52;;;11.04;61.69
50310;BME280;36207;51.850;21.698;2023-04-27T08:05:29;100085.85;;;11.22;62.08
50310;BME280;36207;51.850;21.698;2023-04-27T08:07:55;100085.53;;;11.37;61.07
50310;BME280;36207;51.850;21.698;2023-04-27T08:10:22;100084.27;;;11.46;59.29
50310;BME280;36207;51.850;21.698;2023-04-27T08:12:49;100082.53;;;11.53;59.55
50310;BME280;36207;51.850;21.698;2023-04-27T08:15:15;100086.24;;;11.59;59.24
50310;BME280;36207;51.850;21.698;2023-04-27T08:17:42;100082.61;;;11.58;58.59
50310;BME280;36207;51.850;21.698;2023-04-27T08:20:09;100086.70;;;11.51;59.29
50310;BME280;36207;51.850;21.698;2023-04-27T08:22:39;100086.98;;;11.62;59.95
50310;BME280;36207;51.850;21.698;2023-04-27T08:25:07;100080.54;;;11.79;59.52
50310;BME280;36207;51.850;21.698;2023-04-27T08:27:38;100083.96;;;11.83;59.07
50310;BME280;36207;51.850;21.698;2023-04-27T08:30:05;100086.36;;;11.75;58.70
50310;BME280;36207;51.850;21.698;2023-04-27T08:32:32;100084.03;;;11.63;58.20
50310;BME280;36207;51.850;21.698;2023-04-27T08:34:59;100080.91;;;11.49;58.11
50310;BME280;36207;51.850;21.698;2023-04-27T08:37:25;100081.89;;;11.34;57.25
50310;BME280;36207;51.850;21.698;2023-04-27T08:39:52;100080.52;;;11.27;57.16
50310;BME280;36207;51.850;21.698;2023-04-27T08:42:18;100079.97;;;11.30;57.68
50310;BME280;36207;51.850;21.698;2023-04-27T08:44:44;100078.55;;;11.45;57.70
50310;BME280;36207;51.850;21.698;2023-04-27T08:47:11;100080.43;;;11.62;56.77
50310;BME280;36207;51.850;21.698;2023-04-27T08:49:37;100082.42;;;11.72;56.31
50310;BME280;36207;51.850;21.698;2023-04-27T08:52:13;100083.73;;;11.71;54.46
50310;BME280;36207;51.850;21.698;2023-04-27T08:54:39;100085.55;;;11.65;55.23
50310;BME280;36207;51.850;21.698;2023-04-27T08:57:10;100080.29;;;11.60;56.21
50310;BME280;36207;51.850;21.698;2023-04-27T08:59:38;100083.02;;;11.50;53.57
50310;BME280;36207;51.850;21.698;2023-04-27T09:02:05;100083.00;;;11.37;53.80
50310;BME280;36207;51.850;21.698;2023-04-27T09:04:38;100087.44;;;11.24;53.62
50310;BME280;36207;51.850;21.698;2023-04-27T09:07:08;100089.38;;;11.06;53.27
50310;BME280;36207;51.850;21.698;2023-04-27T09:09:35;100089.75;;;10.89;53.81
50310;BME280;36207;51.850;21.698;2023-04-27T09:12:12;100088.41;;;10.76;54.13
50310;BME280;36207;51.850;21.698;2023-04-27T09:14:39;100086.48;;;10.66;54.30
50310;BME280;36207;51.850;21.698;2023-04-27T09:17:06;100084.25;;;10.60;54.52
50310;BME280;36207;51.850;21.698;2023-04-27T09:19:32;100089.14;;;10.53;54.76
50310;BME280;36207;51.850;21.698;2023-04-27T09:22:09;100087.88;;;10.47;54.78
50310;BME280;36207;51.850;21.698;2023-04-27T09:24:36;100086.58;;;10.41;55.04
50310;BME280;36207;51.850;21.698;2023-04-27T09:27:03;100085.35;;;10.35;54.63
50310;BME280;36207;51.850;21.698;2023-04-27T09:29:35;100085.98;;;10.27;54.29
50310;BME280;36207;51.850;21.698;2023-04-27T09:32:16;100090.10;;;10.23;55.17
50310;BME280;36207;51.850;21.698;2023-04-27T09:34:43;100088.48;;;10.18;54.97
50310;BME280;36207;51.850;21.698;2023-04-27T09:37:10;100087.58;;;10.12;54.97
50310;BME280;36207;51.850;21.698;2023-04-27T09:39:37;100091.90;;;10.07;54.98
50310;BME280;36207;51.850;21.698;2023-04-27T09:42:04;100094.83;;;10.01;54.93
50310;BME280;36207;51.850;21.698;2023-04-27T09:44:30;100094.91;;;9.97;55.02
50310;BME280;36207;51.850;21.698;2023-04-27T09:46:58;100092.60;;;9.92;55.28
50310;BME280;36207;51.850;21.698;2023-04-27T09:49:26;100094.36;;;9.91;55.41
50310;BME280;36207;51.850;21.698;2023-04-27T09:51:55;100092.21;;;9.91;55.89
50310;BME280;36207;51.850;21.698;2023-04-27T09:54:28;100086.31;;;9.95;55.61
50310;BME280;36207;51.850;21.698;2023-04-27T09:57:15;100088.40;;;10.00;55.52
50310;BME280;36207;51.850;21.698;2023-04-27T10:08:34;100079.88;;;10.45;55.54
50310;BME280;36207;51.850;21.698;2023-04-27T10:11:12;100083.17;;;10.52;55.38
50310;BME280;36207;51.850;21.698;2023-04-27T10:13:38;100082.73;;;10.57;54.70
50310;BME280;36207;51.850;21.698;2023-04-27T10:16:15;100079.23;;;10.58;54.67
50310;BME280;36207;51.850;21.698;2023-04-27T10:18:50;100083.56;;;10.64;55.15
50310;BME280;36207;51.850;21.698;2023-04-27T10:21:18;100078.40;;;10.70;54.80
50310;BME280;36207;51.850;21.698;2023-04-27T10:23:49;100081.95;;;10.73;54.10
50310;BME280;36207;51.850;21.698;2023-04-27T10:26:26;100082.50;;;10.75;53.82
50310;BME280;36207;51.850;21.698;2023-04-27T10:29:07;100078.83;;;10.76;53.28
50310;BME280;36207;51.850;21.698;2023-04-27T10:31:34;100080.71;;;10.78;53.18
50310;BME280;36207;51.850;21.698;2023-04-27T10:34:15;100075.08;;;10.82;52.92
50310;BME280;36207;51.850;21.698;2023-04-27T10:36:42;100073.11;;;10.87;53.32
50310;BME280;36207;51.850;21.698;2023-04-27T10:39:20;100073.41;;;10.98;54.31
50310;BME280;36207;51.850;21.698;2023-04-27T10:41:52;100072.52;;;11.11;54.23
50310;BME280;36207;51.850;21.698;2023-04-27T10:44:29;100072.39;;;11.18;53.87
50310;BME280;36207;51.850;21.698;2023-04-27T10:46:58;100076.30;;;11.22;54.08
50310;BME280;36207;51.850;21.698;2023-04-27T10:49:29;100076.73;;;11.26;54.16
50310;BME280;36207;51.850;21.698;2023-04-27T10:51:57;100076.39;;;11.31;54.07
50310;BME280;36207;51.850;21.698;2023-04-27T10:54:28;100079.95;;;11.37;53.78
50310;BME280;36207;51.850;21.698;2023-04-27T10:57:10;100079.25;;;11.37;52.39
50310;BME280;36207;51.850;21.698;2023-04-27T11:02:24;100087.85;;;11.37;52.18
50310;BME280;36207;51.850;21.698;2023-04-27T11:04:51;100085.43;;;11.38;52.22
50310;BME280;36207;51.850;21.698;2023-04-27T11:07:25;100086.64;;;11.36;51.53
50310;BME280;36207;51.850;21.698;2023-04-27T11:09:52;100088.41;;;11.36;52.39
50310;BME280;36207;51.850;21.698;2023-04-27T11:12:19;100084.95;;;11.36;52.26
50310;BME280;36207;51.850;21.698;2023-04-27T11:14:46;100084.29;;;11.35;52.57
50310;BME280;36207;51.850;21.698;2023-04-27T11:17:13;100088.02;;;11.37;52.32
50310;BME280;36207;51.850;21.698;2023-04-27T11:19:46;100091.41;;;11.42;51.86
50310;BME280;36207;51.850;21.698;2023-04-27T11:22:14;100091.08;;;11.44;51.47
50310;BME280;36207;51.850;21.698;2023-04-27T11:24:51;100094.81;;;11.44;51.02
50310;BME280;36207;51.850;21.698;2023-04-27T11:27:18;100093.30;;;11.42;50.96
50310;BME280;36207;51.850;21.698;2023-04-27T11:29:47;100094.41;;;11.42;52.16
50310;BME280;36207;51.850;21.698;2023-04-27T11:32:20;100094.23;;;11.48;52.66
50310;BME280;36207;51.850;21.698;2023-04-27T11:34:52;100096.61;;;11.55;52.39
50310;BME280;36207;51.850;21.698;2023-04-27T11:37:23;100095.57;;;11.59;52.67
50310;BME280;36207;51.850;21.698;2023-04-27T11:39:51;100099.34;;;11.63;52.90
50310;BME280;36207;51.850;21.698;2023-04-27T11:42:23;100100.34;;;11.76;53.84
50310;BME280;36207;51.850;21.698;2023-04-27T11:44:58;100100.25;;;12.02;53.68
50310;BME280;36207;51.850;21.698;2023-04-27T11:47:27;100099.32;;;12.15;51.69
50310;BME280;36207;51.850;21.698;2023-04-27T11:49:56;100105.17;;;12.16;50.38
50310;BME280;36207;51.850;21.698;2023-04-27T11:52:36;100102.84;;;12.10;51.17
50310;BME280;36207;51.850;21.698;2023-04-27T11:55:03;100106.19;;;12.02;50.75
50310;BME280;36207;51.850;21.698;2023-04-27T11:57:32;100112.02;;;11.94;51.06
50310;BME280;36207;51.850;21.698;2023-04-27T12:00:00;100123.01;;;11.86;51.70
50310;BME280;36207;51.850;21.698;2023-04-27T12:02:28;100127.45;;;11.76;51.78
50310;BME280;36207;51.850;21.698;2023-04-27T12:04:57;100130.92;;;11.57;51.75
50310;BME280;36207;51.850;21.698;2023-04-27T12:07:24;100134.45;;;11.35;51.69
50310;BME280;36207;51.850;21.698;2023-04-27T12:09:50;100137.20;;;11.14;52.02
50310;BME280;36207;51.850;21.698;2023-04-27T12:12:17;100137.52;;;10.99;52.26
50310;BME280;36207;51.850;21.698;2023-04-27T12:14:44;100139.64;;;10.87;52.53
50310;BME280;36207;51.850;21.698;2023-04-27T12:17:11;100141.13;;;10.76;52.64
50310;BME280;36207;51.850;21.698;2023-04-27T12:19:37;100141.71;;;10.63;52.40
50310;BME280;36207;51.850;21.698;2023-04-27T12:22:04;100146.54;;;10.48;52.51
50310;BME280;36207;51.850;21.698;2023-04-27T12:24:30;100148.25;;;10.34;52.68
50310;BME280;36207;51.850;21.698;2023-04-27T12:26:57;100151.98;;;10.21;52.50
50310;BME280;36207;51.850;21.698;2023-04-27T12:29:24;100154.29;;;10.10;52.65
50310;BME280;36207;51.850;21.698;2023-04-27T12:31:51;100153.61;;;10.02;52.80
50310;BME280;36207;51.850;21.698;2023-04-27T12:34:18;100151.64;;;9.94;53.04
50310;BME280;36207;51.850;21.698;2023-04-27T12:36:44;100145.39;;;9.88;52.75
50310;BME280;36207;51.850;21.698;2023-04-27T12:39:14;100145.11;;;9.81;52.77
50310;BME280;36207;51.850;21.698;2023-04-27T12:41:45;100142.44;;;9.75;52.84
50310;BME280;36207;51.850;21.698;2023-04-27T12:44:13;100143.91;;;9.71;52.91
50310;BME280;36207;51.850;21.698;2023-04-27T12:46:41;100146.27;;;9.69;52.96
50310;BME280;36207;51.850;21.698;2023-04-27T12:49:08;100148.34;;;9.66;53.10
50310;BME280;36207;51.850;21.698;2023-04-27T12:51:35;100147.63;;;9.65;53.22
50310;BME280;36207;51.850;21.698;2023-04-27T12:54:03;100144.98;;;9.63;53.33
50310;BME280;36207;51.850;21.698;2023-04-27T12:56:30;100143.02;;;9.61;53.46
50310;BME280;36207;51.850;21.698;2023-04-27T12:58:57;100143.23;;;9.61;53.38
50310;BME280;36207;51.850;21.698;2023-04-27T13:01:25;100142.84;;;9.62;53.15
50310;BME280;36207;51.850;21.698;2023-04-27T13:03:59;100141.88;;;9.63;52.92